createdAt,value
2018-04-15T00:00:49.400Z,41.10
2018-04-15T00:03:17.560Z,39.07
2018-04-15T00:05:45.689Z,36.50
2018-04-15T00:08:13.917Z,35.90
2018-04-15T00:10:42.054Z,33.27
2018-04-15T00:13:10.192Z,33.80
2018-04-15T00:15:38.336Z,32.10
2018-04-15T00:18:06.473Z,32.80
2018-04-15T00:20:34.617Z,33.57
2018-04-15T00:23:02.758Z,32.67
2018-04-15T00:25:30.908Z,33.53
2018-04-15T00:27:59.029Z,34.00
2018-04-15T00:30:27.159Z,32.60
2018-04-15T00:32:55.286Z,32.13
2018-04-15T00:35:23.426Z,34.00
2018-04-15T00:37:51.914Z,34.70
2018-04-15T00:40:20.045Z,34.00
2018-04-15T00:42:48.188Z,34.80
2018-04-15T00:45:16.319Z,38.67
2018-04-15T00:47:44.462Z,39.07
2018-04-15T00:50:12.644Z,39.97
2018-04-15T00:52:41.053Z,39.70
2018-04-15T00:55:09.176Z,38.60
2018-04-15T00:57:37.294Z,36.83
2018-04-15T01:00:05.441Z,35.90
2018-04-15T01:02:33.588Z,36.57
2018-04-15T01:05:01.721Z,37.27
2018-04-15T01:07:29.876Z,37.13
2018-04-15T01:09:57.987Z,37.80
2018-04-15T01:12:26.123Z,38.37
2018-04-15T01:14:54.283Z,39.67
2018-04-15T01:17:22.405Z,37.97
2018-04-15T01:19:50.546Z,39.70
2018-04-15T01:22:18.682Z,39.73
2018-04-15T01:24:46.820Z,37.53
2018-04-15T01:27:14.953Z,38.17
2018-04-15T01:29:43.166Z,39.47
2018-04-15T01:32:11.302Z,38.70
2018-04-15T01:34:39.440Z,39.20
2018-04-15T01:37:07.597Z,38.10
2018-04-15T01:39:35.715Z,38.13
2018-04-15T01:42:03.851Z,37.53
2018-04-15T01:44:32.006Z,36.93
2018-04-15T01:47:00.111Z,37.37
2018-04-15T01:49:28.227Z,33.77
2018-04-15T01:51:56.403Z,35.97
2018-04-15T01:54:24.528Z,33.93
2018-04-15T01:56:52.656Z,34.67
2018-04-15T01:59:20.801Z,35.70
2018-04-15T02:01:48.933Z,34.33
2018-04-15T02:04:17.074Z,33.97
2018-04-15T02:06:45.304Z,32.57
2018-04-15T02:09:13.452Z,32.90
2018-04-15T02:11:41.577Z,32.23
2018-04-15T02:14:09.734Z,31.07
2018-04-15T02:16:37.878Z,30.67
2018-04-15T02:19:06.001Z,33.00
2018-04-15T02:21:34.326Z,31.00
2018-04-15T02:24:02.454Z,30.30
2018-04-15T02:26:30.573Z,30.00
2018-04-15T02:28:58.733Z,28.97
2018-04-15T02:31:26.885Z,28.70
2018-04-15T02:33:55.022Z,27.70
2018-04-15T02:36:23.165Z,27.37
2018-04-15T02:38:51.295Z,25.73
2018-04-15T02:41:19.424Z,27.03
2018-04-15T02:43:47.562Z,29.03
2018-04-15T02:46:18.693Z,27.80
2018-04-15T02:48:46.961Z,27.37
2018-04-15T02:51:15.086Z,26.47
2018-04-15T02:53:43.289Z,25.37
2018-04-15T02:56:11.416Z,23.40
2018-04-15T02:58:39.575Z,25.77
2018-04-15T03:01:07.704Z,24.23
2018-04-15T03:03:35.849Z,24.80
2018-04-15T03:06:04.011Z,24.83
2018-04-15T03:08:32.137Z,26.37
2018-04-15T03:11:00.288Z,24.90
2018-04-15T03:13:28.468Z,24.97
2018-04-15T03:15:56.594Z,24.83
2018-04-15T03:18:24.736Z,25.43
2018-04-15T03:20:52.881Z,24.20
2018-04-15T03:23:21.021Z,24.43
2018-04-15T03:25:49.150Z,23.23
2018-04-15T03:28:17.306Z,23.63
2018-04-15T03:30:45.442Z,24.40
2018-04-15T03:33:13.586Z,24.60
2018-04-15T03:35:41.734Z,22.77
2018-04-15T03:38:09.868Z,23.90
2018-04-15T03:40:38.004Z,22.23
2018-04-15T03:43:06.139Z,23.40
2018-04-15T03:45:34.271Z,23.60
2018-04-15T03:48:05.740Z,20.40
2018-04-15T03:50:33.918Z,20.60
2018-04-15T03:53:02.051Z,19.20
2018-04-15T03:55:30.181Z,18.23
2018-04-15T03:57:58.339Z,18.63
2018-04-15T04:00:26.443Z,17.00
2018-04-15T04:02:54.559Z,16.27
2018-04-15T04:05:22.711Z,13.70
2018-04-15T04:07:50.846Z,13.23
2018-04-15T04:10:18.992Z,12.50
2018-04-15T04:12:47.134Z,11.70
2018-04-15T04:15:15.242Z,11.90
2018-04-15T04:17:55.164Z,11.37
2018-04-15T04:20:35.098Z,11.23
2018-04-15T04:23:15.266Z,10.27
2018-04-15T04:25:47.918Z,10.10
2018-04-15T04:28:16.181Z,10.60
2018-04-15T04:30:44.299Z,10.67
2018-04-15T04:33:12.425Z,9.93
2018-04-15T04:35:40.572Z,9.20
2018-04-15T04:38:08.685Z,9.43
2018-04-15T04:40:36.835Z,9.63
2018-04-15T04:43:04.985Z,10.30
2018-04-15T04:45:33.120Z,10.90
2018-04-15T04:48:01.259Z,11.43
2018-04-15T04:50:29.410Z,10.00
2018-04-15T04:52:57.559Z,10.40
2018-04-15T04:55:25.710Z,10.67
2018-04-15T04:57:53.845Z,10.93
2018-04-15T05:00:21.984Z,11.00
2018-04-15T05:02:50.124Z,9.87
2018-04-15T05:05:18.453Z,10.67
2018-04-15T05:07:46.606Z,10.33
2018-04-15T05:10:14.729Z,10.60
2018-04-15T05:12:42.873Z,9.80
2018-04-15T05:15:11.002Z,10.00
2018-04-15T05:17:39.281Z,10.47
2018-04-15T05:20:07.418Z,10.10
2018-04-15T05:22:35.552Z,9.00
2018-04-15T05:25:03.700Z,9.23
2018-04-15T05:27:31.828Z,9.57
2018-04-15T05:30:00.027Z,10.13
2018-04-15T05:32:28.142Z,9.57
2018-04-15T05:34:56.293Z,10.00
2018-04-15T05:37:24.441Z,9.80
2018-04-15T05:39:52.579Z,9.87
2018-04-15T05:42:20.940Z,10.33
2018-04-15T05:44:49.073Z,10.10
2018-04-15T05:47:17.215Z,9.43
2018-04-15T05:49:45.551Z,9.83
2018-04-15T05:52:13.699Z,9.50
2018-04-15T05:54:41.840Z,9.47
2018-04-15T05:57:09.996Z,8.97
2018-04-15T05:59:39.051Z,9.33
2018-04-15T06:02:07.184Z,8.47
2018-04-15T06:04:35.313Z,9.50
2018-04-15T06:07:03.433Z,9.67
2018-04-15T06:09:31.565Z,9.43
2018-04-15T06:11:59.709Z,8.57
2018-04-15T06:14:27.841Z,8.67
2018-04-15T06:16:55.959Z,8.97
2018-04-15T06:19:24.107Z,9.30
2018-04-15T06:21:52.234Z,9.27
2018-04-15T06:24:20.478Z,9.73
2018-04-15T06:26:48.613Z,9.77
2018-04-15T06:29:16.753Z,9.67
2018-04-15T06:31:44.870Z,10.30
2018-04-15T06:34:13.013Z,10.33
2018-04-15T06:36:41.151Z,9.77
2018-04-15T06:39:09.265Z,9.37
2018-04-15T06:41:37.396Z,9.70
2018-04-15T06:44:05.537Z,8.93
2018-04-15T06:46:33.677Z,8.73
2018-04-15T06:49:01.820Z,9.27
2018-04-15T06:51:30.024Z,8.90
2018-04-15T06:53:58.138Z,8.57
2018-04-15T06:56:26.277Z,8.40
2018-04-15T06:58:54.412Z,9.07
2018-04-15T07:01:22.533Z,8.13
2018-04-15T07:03:50.667Z,9.10
2018-04-15T07:06:18.776Z,8.40
2018-04-15T07:08:46.928Z,8.40
2018-04-15T07:11:15.061Z,7.67
2018-04-15T07:13:43.207Z,6.83
2018-04-15T07:16:11.365Z,7.03
2018-04-15T07:18:39.518Z,6.67
2018-04-15T07:21:07.650Z,6.93
2018-04-15T07:23:35.757Z,6.93
2018-04-15T07:26:03.888Z,6.50
2018-04-15T07:28:32.037Z,6.47
2018-04-15T07:31:00.138Z,7.43
2018-04-15T07:33:28.293Z,7.70
2018-04-15T07:35:56.413Z,7.33
2018-04-15T07:38:24.537Z,8.60
2018-04-15T07:40:52.700Z,7.80
2018-04-15T07:43:20.848Z,7.77
2018-04-15T07:45:48.964Z,7.17
2018-04-15T07:48:17.125Z,7.77
2018-04-15T07:50:45.252Z,8.20
2018-04-15T07:53:13.402Z,7.13
2018-04-15T07:55:41.526Z,7.70
2018-04-15T07:58:13.263Z,7.63
2018-04-15T08:00:41.410Z,8.07
2018-04-15T08:03:09.571Z,8.37
2018-04-15T08:05:37.679Z,8.80
2018-04-15T08:08:05.799Z,8.50
2018-04-15T08:10:33.994Z,7.60
2018-04-15T08:13:02.123Z,8.17
2018-04-15T08:15:33.681Z,7.97
2018-04-15T08:18:01.826Z,7.00
2018-04-15T08:20:29.976Z,6.87
2018-04-15T08:22:58.100Z,6.90
2018-04-15T08:25:26.251Z,6.30
2018-04-15T08:27:54.350Z,7.63
2018-04-15T08:30:22.492Z,6.97
2018-04-15T08:32:50.623Z,7.40
2018-04-15T08:35:18.738Z,6.80
2018-04-15T08:37:46.853Z,6.67
2018-04-15T08:40:15.146Z,5.90
2018-04-15T08:42:46.302Z,5.87
2018-04-15T08:45:14.457Z,5.80
2018-04-15T08:47:42.791Z,5.80
2018-04-15T08:50:10.923Z,5.40
2018-04-15T08:52:39.045Z,5.07
2018-04-15T08:55:07.187Z,4.33
2018-04-15T08:57:35.327Z,3.77
2018-04-15T09:00:03.458Z,4.00
2018-04-15T09:02:31.739Z,3.70
2018-04-15T09:04:59.882Z,3.20
2018-04-15T09:07:27.996Z,3.13
2018-04-15T09:09:56.495Z,3.20
2018-04-15T09:12:24.638Z,2.97
2018-04-15T09:14:52.777Z,3.17
2018-04-15T09:17:20.940Z,2.83
2018-04-15T09:19:49.052Z,2.57
2018-04-15T09:22:17.256Z,2.80
2018-04-15T09:24:45.437Z,2.60
2018-04-15T09:27:13.556Z,2.63
2018-04-15T09:29:41.658Z,2.40
2018-04-15T09:32:13.270Z,2.33
2018-04-15T09:34:41.398Z,2.50
2018-04-15T09:37:09.518Z,2.33
2018-04-15T09:39:37.672Z,2.90
2018-04-15T09:42:05.808Z,2.87
2018-04-15T09:44:33.909Z,2.80
2018-04-15T09:47:02.054Z,3.03
2018-04-15T09:49:30.184Z,2.70
2018-04-15T09:51:58.311Z,2.90
2018-04-15T09:54:26.461Z,3.07
2018-04-15T09:56:54.590Z,2.80
2018-04-15T09:59:22.713Z,3.13
2018-04-15T10:01:54.578Z,2.73
2018-04-15T10:04:22.713Z,3.17
2018-04-15T10:06:50.841Z,3.80
2018-04-15T10:09:19.806Z,6.17
2018-04-15T10:11:47.921Z,3.93
2018-04-15T10:14:16.041Z,3.90
2018-04-15T10:16:44.183Z,3.90
2018-04-15T10:19:12.301Z,5.50
2018-04-15T10:21:40.450Z,5.40
2018-04-15T10:24:08.618Z,4.67
2018-04-15T10:26:36.729Z,4.67
2018-04-15T10:29:04.846Z,4.43
2018-04-15T10:31:33.012Z,3.50
2018-04-15T10:34:01.122Z,2.47
2018-04-15T10:36:29.246Z,4.00
2018-04-15T10:38:57.383Z,3.10
2018-04-15T10:41:25.500Z,3.13
2018-04-15T10:43:53.631Z,1.80
2018-04-15T10:46:21.768Z,3.57
2018-04-15T10:48:49.888Z,3.60
2018-04-15T10:51:18.007Z,3.77
2018-04-15T10:53:46.149Z,1.87
2018-04-15T10:56:14.272Z,2.20
2018-04-15T10:58:42.371Z,1.50
2018-04-15T11:01:10.519Z,1.67
2018-04-15T11:03:38.658Z,1.87
2018-04-15T11:06:06.780Z,1.80
2018-04-15T11:08:34.925Z,1.70
2018-04-15T11:11:03.060Z,2.50
2018-04-15T11:13:31.177Z,2.53
2018-04-15T11:16:02.549Z,2.10
2018-04-15T11:18:30.675Z,2.27
2018-04-15T11:20:58.786Z,2.73
2018-04-15T11:23:26.929Z,2.40
2018-04-15T11:25:55.077Z,2.30
2018-04-15T11:28:23.177Z,1.60
2018-04-15T11:30:51.327Z,1.50
2018-04-15T11:33:19.450Z,1.40
2018-04-15T11:35:47.568Z,1.47
2018-04-15T11:38:15.708Z,1.80
2018-04-15T11:40:43.841Z,1.60
2018-04-15T11:43:11.963Z,1.80
2018-04-15T11:45:40.114Z,1.60
2018-04-15T11:48:08.238Z,2.20
2018-04-15T11:50:36.360Z,2.13
2018-04-15T11:53:04.487Z,1.70
2018-04-15T11:55:32.604Z,2.33
2018-04-15T11:58:00.709Z,2.17
2018-04-15T12:00:28.864Z,2.30
2018-04-15T12:02:56.988Z,1.87
2018-04-15T12:05:25.124Z,1.70
2018-04-15T12:07:53.254Z,2.20
2018-04-15T12:10:21.426Z,2.13
2018-04-15T12:12:49.528Z,2.10
2018-04-15T12:15:17.923Z,2.50
2018-04-15T12:17:46.105Z,2.47
2018-04-15T12:20:14.229Z,2.10
2018-04-15T12:22:42.370Z,2.00
2018-04-15T12:25:10.475Z,2.57
2018-04-15T12:27:38.605Z,2.70
2018-04-15T12:30:06.726Z,2.70
2018-04-15T12:32:35.068Z,2.30
2018-04-15T12:35:03.182Z,2.23
2018-04-15T12:37:31.306Z,2.53
2018-04-15T12:39:59.441Z,2.27
2018-04-15T12:42:27.562Z,2.80
2018-04-15T12:44:55.922Z,2.97
2018-04-15T12:47:24.052Z,2.70
2018-04-15T12:49:52.155Z,2.53
2018-04-15T12:52:24.008Z,2.47
2018-04-15T12:54:52.175Z,2.70
2018-04-15T12:57:21.246Z,3.00
2018-04-15T12:59:49.432Z,2.97
2018-04-15T13:02:17.553Z,3.00
2018-04-15T13:04:45.694Z,2.80
2018-04-15T13:07:13.842Z,2.70
2018-04-15T13:09:41.967Z,2.30
2018-04-15T13:12:10.086Z,2.60
2018-04-15T13:14:38.386Z,2.90
2018-04-15T13:17:06.482Z,2.60
2018-04-15T13:19:34.607Z,2.70
2018-04-15T13:22:02.727Z,2.70
2018-04-15T13:24:34.531Z,2.53
2018-04-15T13:27:02.710Z,2.60
2018-04-15T13:29:30.856Z,2.60
2018-04-15T13:31:58.983Z,2.90
2018-04-15T13:34:27.107Z,2.90
2018-04-15T13:36:55.244Z,2.60
2018-04-15T13:39:24.298Z,2.97
2018-04-15T13:41:52.413Z,2.90
2018-04-15T13:44:20.565Z,2.83
2018-04-15T13:46:48.734Z,2.70
2018-04-15T13:49:16.832Z,2.80
2018-04-15T13:51:45.093Z,2.30
2018-04-15T13:54:13.217Z,2.67
2018-04-15T13:56:41.380Z,2.90
2018-04-15T13:59:09.520Z,2.27
2018-04-15T14:01:38.573Z,2.43
2018-04-15T14:04:06.702Z,1.90
2018-04-15T14:06:34.842Z,2.30
2018-04-15T14:09:02.968Z,2.50
2018-04-15T14:11:31.083Z,2.07
2018-04-15T14:13:59.217Z,2.30
2018-04-15T14:16:27.332Z,2.10
2018-04-15T14:18:55.488Z,2.07
2018-04-15T14:21:23.612Z,1.80
2018-04-15T14:23:51.743Z,2.10
2018-04-15T14:26:22.907Z,1.80
2018-04-15T14:28:51.041Z,1.90
2018-04-15T14:31:19.202Z,1.87
2018-04-15T14:33:51.177Z,1.73
2018-04-15T14:36:19.311Z,1.97
2018-04-15T14:38:47.420Z,1.67
2018-04-15T14:41:15.567Z,1.70
2018-04-15T14:43:43.903Z,2.37
2018-04-15T14:46:12.038Z,1.60
2018-04-15T14:48:40.143Z,2.20
2018-04-15T14:51:08.652Z,1.67
2018-04-15T14:53:39.852Z,1.30
2018-04-15T14:56:07.983Z,1.53
2018-04-15T14:58:36.115Z,1.20
2018-04-15T15:01:04.247Z,1.43
2018-04-15T15:03:32.438Z,1.70
2018-04-15T15:06:00.580Z,1.30
2018-04-15T15:08:28.716Z,1.50
2018-04-15T15:10:56.842Z,1.40
2018-04-15T15:13:24.990Z,1.60
2018-04-15T15:15:53.077Z,2.00
2018-04-15T15:18:21.207Z,1.70
2018-04-15T15:20:49.392Z,1.63
2018-04-15T15:23:17.520Z,1.27
2018-04-15T15:25:45.656Z,1.47
2018-04-15T15:28:13.780Z,1.67
2018-04-15T15:30:41.927Z,1.70
2018-04-15T15:33:10.055Z,1.57
2018-04-15T15:35:38.212Z,1.53
2018-04-15T15:38:06.334Z,1.60
2018-04-15T15:40:34.458Z,1.50
2018-04-15T15:43:02.583Z,1.50
2018-04-15T15:45:30.720Z,1.80
2018-04-15T15:47:58.829Z,1.40
2018-04-15T15:50:27.173Z,1.60
2018-04-15T15:52:55.296Z,1.43
2018-04-15T15:55:23.411Z,1.37
2018-04-15T15:57:51.538Z,1.70
2018-04-15T16:00:19.683Z,1.50
2018-04-15T16:02:47.802Z,1.60
2018-04-15T16:05:15.936Z,1.60
2018-04-15T16:07:44.071Z,1.27
2018-04-15T16:10:12.270Z,1.40
2018-04-15T16:12:40.446Z,1.70
2018-04-15T16:15:08.582Z,1.43
2018-04-15T16:17:36.716Z,1.40
2018-04-15T16:20:04.843Z,1.90
2018-04-15T16:22:32.953Z,1.50
2018-04-15T16:25:01.991Z,1.50
2018-04-15T16:27:30.107Z,1.30
2018-04-15T16:29:58.237Z,1.43
2018-04-15T16:32:26.382Z,1.40
2018-04-15T16:34:54.536Z,1.70
2018-04-15T16:37:22.658Z,1.77
2018-04-15T16:39:50.937Z,1.60
2018-04-15T16:42:19.081Z,1.50
2018-04-15T16:44:47.297Z,2.10
2018-04-15T16:47:15.444Z,1.90
2018-04-15T16:49:43.636Z,1.77
2018-04-15T16:52:11.749Z,1.23
2018-04-15T16:54:39.883Z,1.60
2018-04-15T16:57:08.242Z,1.90
2018-04-15T16:59:36.359Z,1.60
2018-04-15T17:02:04.473Z,2.00
2018-04-15T17:04:32.643Z,1.77
2018-04-15T17:07:00.783Z,1.80
2018-04-15T17:09:28.936Z,1.60
2018-04-15T17:11:57.066Z,1.90
2018-04-15T17:14:25.207Z,1.47
2018-04-15T17:16:53.347Z,1.67
2018-04-15T17:19:21.555Z,1.70
2018-04-15T17:21:49.750Z,1.93
2018-04-15T17:24:17.926Z,1.90
2018-04-15T17:26:46.270Z,2.07
2018-04-15T17:29:14.407Z,4.40
2018-04-15T17:31:42.804Z,2.20
2018-04-15T17:34:10.925Z,1.90
2018-04-15T17:36:39.042Z,1.57
2018-04-15T17:39:07.170Z,1.83
2018-04-15T17:41:35.303Z,2.57
2018-04-15T17:44:03.436Z,2.57
2018-04-15T17:46:31.543Z,2.10
2018-04-15T17:48:59.693Z,2.20
2018-04-15T17:51:27.804Z,2.00
2018-04-15T17:53:55.952Z,1.77
2018-04-15T17:56:24.110Z,1.90
2018-04-15T17:58:52.246Z,2.03
2018-04-15T18:01:23.542Z,2.20
2018-04-15T18:03:51.674Z,2.50
2018-04-15T18:06:19.783Z,2.37
2018-04-15T18:08:47.913Z,2.20
2018-04-15T18:11:16.067Z,2.23
2018-04-15T18:13:44.221Z,2.30
2018-04-15T18:16:12.356Z,2.57
2018-04-15T18:18:40.483Z,3.30
2018-04-15T18:21:08.607Z,2.90
2018-04-15T18:23:37.000Z,2.23
2018-04-15T18:26:05.419Z,2.23
2018-04-15T18:28:33.542Z,2.20
2018-04-15T18:31:01.665Z,3.30
2018-04-15T18:33:29.806Z,2.53
2018-04-15T18:35:57.941Z,2.13
2018-04-15T18:38:26.084Z,2.20
2018-04-15T18:40:54.211Z,2.10
2018-04-15T18:43:22.347Z,2.10
2018-04-15T18:45:50.451Z,1.83
2018-04-15T18:48:18.608Z,2.10
2018-04-15T18:50:46.752Z,2.40
2018-04-15T18:53:14.872Z,2.87
2018-04-15T18:55:43.027Z,2.70
2018-04-15T18:58:11.158Z,2.00
2018-04-15T19:00:39.279Z,1.93
2018-04-15T19:03:07.431Z,2.03
2018-04-15T19:05:35.562Z,1.67
2018-04-15T19:08:03.685Z,2.00
2018-04-15T19:10:31.804Z,1.97
2018-04-15T19:12:59.932Z,1.77
2018-04-15T19:15:28.087Z,1.70
2018-04-15T19:17:56.461Z,1.97
2018-04-15T19:20:24.592Z,1.83
2018-04-15T19:22:52.727Z,1.80
2018-04-15T19:25:20.877Z,2.37
2018-04-15T19:27:48.986Z,2.20
2018-04-15T19:30:17.155Z,1.80
2018-04-15T19:32:45.302Z,1.73
2018-04-15T19:35:13.443Z,1.90
2018-04-15T19:37:41.562Z,6.33
2018-04-15T19:40:09.678Z,5.70
2018-04-15T19:42:37.816Z,4.80
2018-04-15T19:45:05.933Z,2.47
2018-04-15T19:47:34.139Z,2.20
2018-04-15T19:50:02.262Z,1.80
2018-04-15T19:52:30.371Z,1.87
2018-04-15T19:54:58.512Z,2.20
2018-04-15T19:57:26.624Z,1.80
2018-04-15T19:59:54.770Z,2.20
2018-04-15T20:02:22.915Z,2.10
2018-04-15T20:04:51.035Z,1.63
2018-04-15T20:07:19.153Z,1.93
2018-04-15T20:09:47.301Z,3.23
2018-04-15T20:12:15.429Z,6.47
2018-04-15T20:14:43.548Z,28.00
2018-04-15T20:17:11.726Z,16.90
2018-04-15T20:19:39.914Z,3.90
2018-04-15T20:22:08.002Z,3.00
2018-04-15T20:24:36.137Z,3.57
2018-04-15T20:27:04.348Z,5.50
2018-04-15T20:29:32.444Z,8.97
2018-04-15T20:32:00.679Z,5.63
2018-04-15T20:34:28.833Z,3.10
2018-04-15T20:36:56.980Z,3.13
2018-04-15T20:39:25.125Z,2.57
2018-04-15T20:41:53.385Z,2.60
2018-04-15T20:44:21.497Z,3.93
2018-04-15T20:46:49.646Z,6.60
2018-04-15T20:49:17.790Z,11.03
2018-04-15T20:51:45.922Z,10.53
2018-04-15T20:54:14.063Z,8.07
2018-04-15T20:56:42.205Z,10.93
2018-04-15T20:59:10.423Z,18.40
2018-04-15T21:01:38.558Z,13.57
2018-04-15T21:04:06.763Z,14.63
2018-04-15T21:06:34.941Z,4.77
2018-04-15T21:09:03.095Z,5.77
2018-04-15T21:11:31.243Z,5.70
2018-04-15T21:13:59.347Z,2.97
2018-04-15T21:16:27.472Z,2.60
2018-04-15T21:18:55.603Z,3.50
2018-04-15T21:21:23.738Z,3.03
2018-04-15T21:23:51.888Z,2.63
2018-04-15T21:26:20.069Z,2.50
2018-04-15T21:28:48.188Z,2.60
2018-04-15T21:31:16.351Z,2.80
2018-04-15T21:33:44.493Z,3.30
2018-04-15T21:36:12.627Z,3.60
2018-04-15T21:38:40.787Z,3.00
2018-04-15T21:41:08.901Z,3.80
2018-04-15T21:43:37.002Z,4.27
2018-04-15T21:46:05.145Z,5.80
2018-04-15T21:48:33.285Z,4.33
2018-04-15T21:51:01.423Z,4.40
2018-04-15T21:53:29.628Z,4.20
2018-04-15T21:55:57.758Z,4.00
2018-04-15T21:58:25.934Z,3.67
2018-04-15T22:00:54.088Z,3.10
2018-04-15T22:03:25.728Z,3.10
2018-04-15T22:05:53.854Z,3.00
2018-04-15T22:08:21.971Z,2.83
2018-04-15T22:10:50.076Z,2.80
2018-04-15T22:13:18.221Z,2.70
2018-04-15T22:15:46.348Z,2.70
2018-04-15T22:18:14.462Z,2.70
2018-04-15T22:20:42.574Z,2.53
2018-04-15T22:23:10.783Z,2.70
2018-04-15T22:25:38.899Z,3.07
2018-04-15T22:28:07.045Z,2.80
2018-04-15T22:30:35.157Z,2.67
2018-04-15T22:33:03.292Z,3.00
2018-04-15T22:35:31.406Z,2.60
2018-04-15T22:37:59.777Z,2.90
2018-04-15T22:40:27.917Z,2.70
2018-04-15T22:42:56.044Z,3.07
2018-04-15T22:45:24.159Z,3.17
2018-04-15T22:47:58.002Z,3.20
2018-04-15T22:50:31.843Z,3.13
2018-04-15T22:52:59.980Z,2.70
2018-04-15T22:55:28.110Z,2.87
2018-04-15T22:57:56.254Z,3.17
2018-04-15T23:00:24.374Z,2.60
2018-04-15T23:02:52.479Z,3.20
2018-04-15T23:05:20.610Z,3.17
2018-04-15T23:07:48.717Z,2.63
2018-04-15T23:10:16.845Z,3.13
2018-04-15T23:12:44.960Z,2.93
2018-04-15T23:15:13.095Z,3.00
2018-04-15T23:17:41.222Z,3.37
2018-04-15T23:20:09.372Z,3.10
2018-04-15T23:22:41.038Z,2.80
2018-04-15T23:25:09.134Z,2.70
2018-04-15T23:27:37.275Z,2.43
2018-04-15T23:30:05.419Z,2.80
2018-04-15T23:32:33.527Z,2.87
2018-04-15T23:35:01.662Z,2.90
2018-04-15T23:37:29.784Z,3.47
2018-04-15T23:39:57.897Z,3.00
2018-04-15T23:42:26.026Z,3.10
2018-04-15T23:44:54.159Z,2.87
2018-04-15T23:47:22.277Z,3.00
2018-04-15T23:49:50.402Z,3.10
2018-04-15T23:52:18.521Z,3.10
2018-04-15T23:54:46.644Z,2.80
2018-04-15T23:57:14.781Z,3.27
2018-04-15T23:59:42.903Z,2.90
